createdAt,value
2018-03-22T00:00:23.599Z,982.62
2018-03-22T00:01:23.570Z,982.65
2018-03-22T00:02:23.613Z,982.67
2018-03-22T00:03:23.561Z,982.68
2018-03-22T00:04:23.548Z,982.68
2018-03-22T00:05:23.544Z,982.72
2018-03-22T00:06:23.541Z,982.69
2018-03-22T00:07:23.551Z,982.68
2018-03-22T00:08:23.601Z,982.69
2018-03-22T00:09:23.527Z,982.68
2018-03-22T00:10:23.524Z,982.65
2018-03-22T00:11:23.507Z,982.66
2018-03-22T00:12:23.490Z,982.63
2018-03-22T00:13:23.554Z,982.61
2018-03-22T00:14:23.497Z,982.60
2018-03-22T00:15:23.489Z,982.59
2018-03-22T00:16:23.487Z,982.57
2018-03-22T00:17:23.475Z,982.57
2018-03-22T00:18:24.318Z,982.52
2018-03-22T00:19:23.471Z,982.50
2018-03-22T00:20:23.448Z,982.52
2018-03-22T00:21:23.487Z,982.47
2018-03-22T00:22:23.458Z,982.54
2018-03-22T00:23:23.502Z,982.52
2018-03-22T00:24:23.423Z,982.53
2018-03-22T00:25:23.425Z,982.52
2018-03-22T00:26:23.437Z,982.53
2018-03-22T00:27:23.402Z,982.52
2018-03-22T00:28:23.457Z,982.55
2018-03-22T00:29:23.389Z,982.52
2018-03-22T00:30:23.435Z,982.51
2018-03-22T00:31:23.383Z,982.52
2018-03-22T00:32:23.360Z,982.49
2018-03-22T00:33:23.393Z,982.52
2018-03-22T00:34:23.353Z,982.52
2018-03-22T00:35:23.385Z,982.51
2018-03-22T00:36:23.335Z,982.55
2018-03-22T00:37:23.322Z,982.57
2018-03-22T00:38:23.391Z,982.53
2018-03-22T00:39:44.355Z,982.52
2018-03-22T00:40:23.343Z,982.50
2018-03-22T00:41:23.340Z,982.44
2018-03-22T00:42:23.328Z,982.43
2018-03-22T00:43:23.364Z,982.40
2018-03-22T00:44:23.278Z,982.37
2018-03-22T00:45:23.262Z,982.38
2018-03-22T00:46:23.267Z,982.35
2018-03-22T00:47:23.293Z,982.38
2018-03-22T00:48:23.343Z,982.34
2018-03-22T00:49:23.262Z,982.28
2018-03-22T00:50:23.246Z,982.28
2018-03-22T00:51:23.225Z,982.28
2018-03-22T00:52:23.243Z,982.28
2018-03-22T00:53:23.275Z,982.25
2018-03-22T00:54:23.216Z,982.27
2018-03-22T00:55:23.210Z,982.26
2018-03-22T00:56:23.238Z,982.23
2018-03-22T00:57:23.206Z,982.23
2018-03-22T00:58:23.237Z,982.24
2018-03-22T00:59:23.200Z,982.17
2018-03-22T01:00:47.057Z,982.17
2018-03-22T01:01:23.176Z,982.17
2018-03-22T01:02:23.244Z,982.17
2018-03-22T01:03:23.172Z,982.13
2018-03-22T01:04:23.150Z,982.10
2018-03-22T01:05:23.148Z,982.10
2018-03-22T01:06:23.126Z,982.08
2018-03-22T01:07:23.176Z,982.07
2018-03-22T01:08:23.120Z,982.05
2018-03-22T01:09:23.106Z,982.01
2018-03-22T01:10:23.124Z,982.02
2018-03-22T01:11:23.120Z,982.00
2018-03-22T01:12:23.118Z,981.94
2018-03-22T01:13:23.077Z,981.94
2018-03-22T01:14:23.103Z,981.98
2018-03-22T01:15:23.068Z,981.99
2018-03-22T01:16:23.053Z,981.94
2018-03-22T01:17:23.102Z,981.99
2018-03-22T01:18:23.043Z,981.98
2018-03-22T01:19:23.036Z,981.95
2018-03-22T01:20:23.038Z,981.95
2018-03-22T01:21:26.009Z,981.91
2018-03-22T01:22:23.049Z,981.88
2018-03-22T01:23:23.059Z,981.86
2018-03-22T01:24:23.032Z,981.88
2018-03-22T01:25:23.019Z,981.89
2018-03-22T01:26:23.003Z,981.88
2018-03-22T01:27:23.033Z,981.86
2018-03-22T01:28:22.971Z,981.88
2018-03-22T01:29:22.972Z,981.87
2018-03-22T01:30:23.001Z,981.84
2018-03-22T01:31:22.956Z,981.84
2018-03-22T01:32:23.027Z,981.79
2018-03-22T01:33:22.941Z,981.81
2018-03-22T01:34:22.928Z,981.81
2018-03-22T01:35:22.932Z,981.73
2018-03-22T01:36:22.968Z,981.77
2018-03-22T01:37:22.980Z,981.73
2018-03-22T01:38:22.942Z,981.74
2018-03-22T01:39:22.917Z,981.72
2018-03-22T01:40:22.908Z,981.76
2018-03-22T01:41:22.909Z,981.73
2018-03-22T01:42:24.513Z,981.73
2018-03-22T01:43:22.919Z,981.70
2018-03-22T01:44:22.873Z,981.69
2018-03-22T01:45:22.867Z,981.69
2018-03-22T01:46:22.891Z,981.64
2018-03-22T01:47:22.907Z,981.63
2018-03-22T01:48:22.838Z,981.63
2018-03-22T01:49:22.830Z,981.60
2018-03-22T01:50:22.837Z,981.62
2018-03-22T01:51:22.828Z,981.62
2018-03-22T01:52:22.891Z,981.54
2018-03-22T01:53:22.826Z,981.52
2018-03-22T01:54:22.807Z,981.53
2018-03-22T01:55:22.837Z,981.42
2018-03-22T01:56:22.804Z,981.40
2018-03-22T01:57:22.791Z,981.39
2018-03-22T01:58:22.850Z,981.36
2018-03-22T01:59:22.790Z,981.30
2018-03-22T02:00:22.782Z,981.29
2018-03-22T02:01:22.782Z,981.27
2018-03-22T02:02:22.775Z,981.22
2018-03-22T02:03:22.821Z,981.22
2018-03-22T02:04:22.739Z,981.18
2018-03-22T02:05:22.759Z,981.11
2018-03-22T02:06:22.738Z,981.14
2018-03-22T02:07:22.725Z,981.09
2018-03-22T02:08:22.779Z,981.09
2018-03-22T02:09:22.709Z,981.11
2018-03-22T02:10:22.706Z,981.10
2018-03-22T02:11:22.687Z,981.04
2018-03-22T02:12:22.723Z,980.99
2018-03-22T02:13:22.740Z,981.00
2018-03-22T02:14:22.668Z,980.97
2018-03-22T02:15:22.699Z,980.95
2018-03-22T02:16:22.669Z,980.97
2018-03-22T02:17:22.652Z,980.97
2018-03-22T02:18:22.730Z,980.93
2018-03-22T02:19:22.658Z,980.95
2018-03-22T02:20:22.629Z,980.94
2018-03-22T02:21:22.639Z,980.95
2018-03-22T02:22:22.808Z,980.95
2018-03-22T02:23:22.673Z,980.91
2018-03-22T02:24:22.635Z,980.92
2018-03-22T02:25:22.618Z,980.88
2018-03-22T02:26:22.574Z,980.84
2018-03-22T02:27:22.569Z,980.83
2018-03-22T02:28:22.658Z,980.78
2018-03-22T02:29:22.583Z,980.78
2018-03-22T02:30:22.577Z,980.75
2018-03-22T02:31:22.575Z,980.72
2018-03-22T02:32:22.558Z,980.71
2018-03-22T02:33:22.628Z,980.71
2018-03-22T02:34:22.550Z,980.68
2018-03-22T02:35:22.538Z,980.70
2018-03-22T02:36:22.534Z,980.65
2018-03-22T02:37:22.534Z,980.69
2018-03-22T02:38:22.562Z,980.67
2018-03-22T02:39:22.526Z,980.65
2018-03-22T02:40:22.535Z,980.67
2018-03-22T02:41:22.499Z,980.66
2018-03-22T02:42:22.487Z,980.65
2018-03-22T02:43:22.540Z,980.65
2018-03-22T02:44:22.492Z,980.62
2018-03-22T02:45:22.463Z,980.61
2018-03-22T02:46:22.470Z,980.62
2018-03-22T02:47:22.500Z,980.64
2018-03-22T02:48:22.456Z,980.54
2018-03-22T02:49:22.448Z,980.54
2018-03-22T02:50:22.428Z,980.51
2018-03-22T02:51:22.419Z,980.51
2018-03-22T02:52:22.486Z,980.51
2018-03-22T02:53:22.399Z,980.46
2018-03-22T02:54:22.452Z,980.52
2018-03-22T02:55:22.422Z,980.46
2018-03-22T02:56:22.425Z,980.46
2018-03-22T02:57:22.390Z,980.41
2018-03-22T02:58:22.429Z,980.44
2018-03-22T02:59:22.386Z,980.39
2018-03-22T03:00:22.393Z,980.38
2018-03-22T03:01:22.367Z,980.34
2018-03-22T03:02:22.404Z,980.34
2018-03-22T03:03:22.363Z,980.35
2018-03-22T03:04:22.385Z,980.37
2018-03-22T03:05:22.348Z,980.32
2018-03-22T03:06:22.335Z,980.37
2018-03-22T03:07:22.401Z,980.32
2018-03-22T03:08:22.329Z,980.34
2018-03-22T03:09:22.298Z,980.31
2018-03-22T03:10:22.310Z,980.29
2018-03-22T03:11:22.296Z,980.26
2018-03-22T03:12:22.344Z,980.24
2018-03-22T03:13:22.296Z,980.21
2018-03-22T03:14:22.275Z,980.17
2018-03-22T03:15:22.281Z,980.18
2018-03-22T03:16:22.272Z,980.10
2018-03-22T03:17:22.316Z,980.11
2018-03-22T03:18:22.250Z,980.09
2018-03-22T03:19:22.250Z,980.06
2018-03-22T03:20:22.260Z,980.01
2018-03-22T03:21:22.271Z,980.00
2018-03-22T03:22:22.220Z,979.97
2018-03-22T03:23:22.225Z,979.92
2018-03-22T03:24:22.234Z,979.93
2018-03-22T03:25:22.216Z,979.94
2018-03-22T03:26:22.249Z,979.86
2018-03-22T03:27:22.212Z,979.85
2018-03-22T03:28:22.179Z,979.82
2018-03-22T03:29:22.208Z,979.81
2018-03-22T03:30:22.176Z,979.80
2018-03-22T03:31:22.214Z,979.78
2018-03-22T03:32:22.177Z,979.78
2018-03-22T03:33:22.166Z,979.78
2018-03-22T03:34:22.149Z,979.74
2018-03-22T03:35:22.156Z,979.73
2018-03-22T03:36:22.192Z,979.72
2018-03-22T03:37:22.138Z,979.69
2018-03-22T03:38:22.135Z,979.70
2018-03-22T03:39:22.152Z,979.69
2018-03-22T03:40:22.112Z,979.66
2018-03-22T03:41:22.160Z,979.66
2018-03-22T03:42:22.087Z,979.64
2018-03-22T03:43:22.107Z,979.66
2018-03-22T03:44:22.116Z,979.70
2018-03-22T03:45:22.100Z,979.65
2018-03-22T03:46:22.113Z,979.68
2018-03-22T03:47:22.069Z,979.65
2018-03-22T03:48:22.076Z,979.62
2018-03-22T03:49:22.046Z,979.61
2018-03-22T03:50:22.045Z,979.59
2018-03-22T03:51:22.099Z,979.61
2018-03-22T03:52:22.050Z,979.57
2018-03-22T03:53:22.063Z,979.57
2018-03-22T03:54:22.027Z,979.53
2018-03-22T03:55:22.025Z,979.54
2018-03-22T03:56:22.010Z,979.53
2018-03-22T03:57:22.056Z,979.53
2018-03-22T03:58:21.996Z,979.53
2018-03-22T03:59:21.984Z,979.51
2018-03-22T04:00:21.980Z,979.50
2018-03-22T04:01:22.000Z,979.52
2018-03-22T04:02:22.045Z,979.54
2018-03-22T04:03:21.955Z,979.50
2018-03-22T04:04:21.951Z,979.48
2018-03-22T04:05:21.941Z,979.48
2018-03-22T04:06:21.979Z,979.44
2018-03-22T04:07:21.938Z,979.43
2018-03-22T04:08:21.923Z,979.39
2018-03-22T04:09:21.929Z,979.36
2018-03-22T04:10:21.912Z,979.37
2018-03-22T04:11:21.966Z,979.38
2018-03-22T04:12:21.920Z,979.37
2018-03-22T04:13:21.935Z,979.36
2018-03-22T04:14:21.900Z,979.36
2018-03-22T04:15:21.899Z,979.32
2018-03-22T04:16:21.915Z,979.32
2018-03-22T04:17:21.860Z,979.32
2018-03-22T04:18:21.866Z,979.33
2018-03-22T04:19:21.905Z,979.28
2018-03-22T04:20:21.858Z,979.31
2018-03-22T04:21:21.910Z,979.36
2018-03-22T04:22:21.852Z,979.30
2018-03-22T04:23:23.536Z,979.29
2018-03-22T04:24:21.825Z,979.26
2018-03-22T04:25:21.809Z,979.31
2018-03-22T04:26:21.868Z,979.24
2018-03-22T04:27:21.811Z,979.22
2018-03-22T04:28:21.781Z,979.19
2018-03-22T04:29:21.810Z,979.18
2018-03-22T04:30:21.781Z,979.20
2018-03-22T04:31:21.831Z,979.18
2018-03-22T04:32:21.778Z,979.13
2018-03-22T04:33:21.765Z,979.13
2018-03-22T04:34:21.768Z,979.11
2018-03-22T04:35:21.732Z,979.07
2018-03-22T04:36:21.793Z,979.06
2018-03-22T04:37:21.765Z,979.03
2018-03-22T04:38:21.718Z,979.03
2018-03-22T04:39:21.740Z,979.00
2018-03-22T04:40:21.706Z,979.00
2018-03-22T04:41:21.766Z,978.95
2018-03-22T04:42:21.713Z,978.96
2018-03-22T04:43:21.711Z,978.96
2018-03-22T04:44:21.706Z,978.97
2018-03-22T04:45:21.700Z,978.96
2018-03-22T04:46:21.738Z,978.90
2018-03-22T04:47:21.663Z,978.94
2018-03-22T04:48:21.680Z,978.91
2018-03-22T04:49:21.666Z,978.90
2018-03-22T04:50:21.658Z,978.91
2018-03-22T04:51:21.708Z,978.90
2018-03-22T04:52:21.648Z,978.87
2018-03-22T04:53:21.643Z,978.83
2018-03-22T04:54:21.649Z,978.83
2018-03-22T04:55:21.619Z,978.79
2018-03-22T04:56:21.615Z,978.76
2018-03-22T04:57:21.657Z,978.78
2018-03-22T04:58:21.599Z,978.70
2018-03-22T04:59:21.583Z,978.73
2018-03-22T05:00:21.592Z,978.72
2018-03-22T05:01:21.588Z,978.75
2018-03-22T05:02:21.641Z,978.69
2018-03-22T05:03:21.586Z,978.67
2018-03-22T05:04:21.558Z,978.72
2018-03-22T05:05:21.570Z,978.70
2018-03-22T05:06:21.563Z,978.67
2018-03-22T05:07:21.570Z,978.68
2018-03-22T05:08:21.539Z,978.61
2018-03-22T05:09:21.557Z,978.63
2018-03-22T05:10:21.540Z,978.61
2018-03-22T05:11:21.533Z,978.62
2018-03-22T05:12:21.568Z,978.63
2018-03-22T05:13:21.529Z,978.60
2018-03-22T05:14:21.495Z,978.64
2018-03-22T05:15:21.508Z,978.58
2018-03-22T05:16:21.497Z,978.57
2018-03-22T05:17:21.511Z,978.55
2018-03-22T05:18:21.466Z,978.55
2018-03-22T05:19:21.459Z,978.48
2018-03-22T05:20:21.465Z,978.46
2018-03-22T05:21:21.477Z,978.51
2018-03-22T05:22:21.499Z,978.48
2018-03-22T05:23:21.465Z,978.49
2018-03-22T05:24:21.424Z,978.49
2018-03-22T05:25:21.455Z,978.50
2018-03-22T05:26:21.453Z,978.47
2018-03-22T05:27:21.506Z,978.39
2018-03-22T05:28:21.411Z,978.46
2018-03-22T05:29:21.421Z,978.49
2018-03-22T05:30:21.426Z,978.43
2018-03-22T05:31:21.397Z,978.43
2018-03-22T05:32:21.411Z,978.41
2018-03-22T05:33:21.406Z,978.40
2018-03-22T05:34:21.383Z,978.35
2018-03-22T05:35:21.372Z,978.39
2018-03-22T05:36:21.362Z,978.35
2018-03-22T05:37:21.368Z,978.33
2018-03-22T05:38:21.414Z,978.39
2018-03-22T05:39:21.342Z,978.38
2018-03-22T05:40:21.381Z,978.36
2018-03-22T05:41:21.364Z,978.27
2018-03-22T05:42:21.329Z,978.29
2018-03-22T05:43:21.371Z,978.29
2018-03-22T05:44:21.318Z,978.27
2018-03-22T05:45:21.326Z,978.25
2018-03-22T05:46:21.293Z,978.24
2018-03-22T05:47:21.286Z,978.24
2018-03-22T05:48:21.352Z,978.26
2018-03-22T05:49:21.305Z,978.24
2018-03-22T05:50:21.281Z,978.23
2018-03-22T05:51:21.266Z,978.25
2018-03-22T05:52:21.275Z,978.23
2018-03-22T05:53:21.301Z,978.28
2018-03-22T05:54:21.243Z,978.19
2018-03-22T05:55:21.238Z,978.18
2018-03-22T05:56:21.249Z,978.16
2018-03-22T05:57:21.230Z,978.13
2018-03-22T05:58:21.279Z,978.15
2018-03-22T05:59:21.232Z,978.13
2018-03-22T06:00:21.208Z,978.16
2018-03-22T06:01:21.232Z,978.04
2018-03-22T06:02:21.250Z,978.12
2018-03-22T06:03:21.195Z,978.11
2018-03-22T06:04:21.202Z,978.07
2018-03-22T06:05:21.208Z,978.04
2018-03-22T06:06:21.156Z,978.07
2018-03-22T06:07:21.219Z,978.07
2018-03-22T06:08:21.166Z,978.02
2018-03-22T06:09:21.162Z,978.00
2018-03-22T06:10:21.163Z,978.03
2018-03-22T06:11:21.167Z,978.05
2018-03-22T06:12:21.221Z,978.02
2018-03-22T06:13:21.141Z,978.03
2018-03-22T06:14:21.189Z,978.01
2018-03-22T06:15:21.112Z,978.00
2018-03-22T06:16:21.134Z,977.91
2018-03-22T06:17:21.195Z,977.96
2018-03-22T06:18:21.125Z,977.97
2018-03-22T06:19:21.112Z,977.99
2018-03-22T06:20:21.113Z,977.98
2018-03-22T06:21:21.100Z,977.93
2018-03-22T06:22:21.148Z,977.94
2018-03-22T06:23:21.086Z,977.91
2018-03-22T06:24:21.099Z,977.96
2018-03-22T06:25:21.083Z,977.97
2018-03-22T06:26:21.065Z,977.95
2018-03-22T06:27:21.098Z,977.90
2018-03-22T06:28:21.054Z,977.90
2018-03-22T06:29:21.074Z,977.87
2018-03-22T06:30:21.038Z,977.87
2018-03-22T06:31:21.080Z,977.87
2018-03-22T06:32:21.032Z,977.80
2018-03-22T06:33:21.012Z,977.80
2018-03-22T06:34:21.012Z,977.72
2018-03-22T06:35:21.027Z,977.73
2018-03-22T06:36:21.098Z,977.67
2018-03-22T06:37:21.018Z,977.81
2018-03-22T06:38:21.026Z,977.83
2018-03-22T06:39:20.988Z,977.75
2018-03-22T06:40:20.988Z,977.78
2018-03-22T06:41:20.968Z,977.76
2018-03-22T06:42:21.020Z,977.67
2018-03-22T06:43:20.966Z,977.65
2018-03-22T06:44:21.039Z,977.62
2018-03-22T06:45:20.954Z,977.58
2018-03-22T06:46:20.935Z,977.59
2018-03-22T06:47:20.989Z,977.58
2018-03-22T06:48:20.927Z,977.54
2018-03-22T06:49:20.948Z,977.58
2018-03-22T06:50:20.964Z,977.59
2018-03-22T06:51:20.956Z,977.59
2018-03-22T06:52:20.973Z,977.52
2018-03-22T06:53:20.907Z,977.49
2018-03-22T06:54:20.924Z,977.52
2018-03-22T06:55:20.903Z,977.41
2018-03-22T06:56:20.935Z,977.30
2018-03-22T06:57:20.883Z,977.41
2018-03-22T06:58:20.872Z,977.41
2018-03-22T06:59:20.872Z,977.47
2018-03-22T07:00:20.891Z,977.40
2018-03-22T07:01:20.903Z,977.41
2018-03-22T07:02:20.873Z,977.43
2018-03-22T07:03:20.856Z,977.41
2018-03-22T07:04:20.859Z,977.39
2018-03-22T07:05:20.839Z,977.45
2018-03-22T07:06:20.844Z,977.48
2018-03-22T07:07:20.897Z,977.53
2018-03-22T07:08:20.826Z,977.51
2018-03-22T07:09:20.870Z,977.56
2018-03-22T07:10:20.810Z,977.59
2018-03-22T07:11:20.849Z,977.61
2018-03-22T07:12:20.815Z,977.62
2018-03-22T07:13:20.802Z,977.59
2018-03-22T07:14:20.795Z,977.57
2018-03-22T07:15:20.820Z,977.51
2018-03-22T07:16:20.887Z,977.52
2018-03-22T07:17:20.780Z,977.51
2018-03-22T07:18:20.787Z,977.49
2018-03-22T07:19:20.774Z,977.42
2018-03-22T07:20:20.749Z,977.42
2018-03-22T07:21:20.801Z,977.42
2018-03-22T07:22:20.748Z,977.44
2018-03-22T07:23:20.773Z,977.44
2018-03-22T07:24:20.843Z,977.36
2018-03-22T07:25:20.741Z,977.33
2018-03-22T07:26:20.807Z,977.25
2018-03-22T07:27:20.780Z,977.28
2018-03-22T07:28:20.752Z,977.24
2018-03-22T07:29:20.717Z,977.23
2018-03-22T07:30:20.745Z,977.24
2018-03-22T07:31:20.754Z,977.18
2018-03-22T07:32:20.729Z,977.16
2018-03-22T07:33:20.731Z,977.07
2018-03-22T07:34:20.689Z,977.03
2018-03-22T07:35:20.740Z,977.00
2018-03-22T07:36:20.705Z,977.00
2018-03-22T07:37:20.706Z,976.94
2018-03-22T07:38:20.697Z,976.92
2018-03-22T07:39:20.708Z,976.94
2018-03-22T07:40:20.734Z,976.90
2018-03-22T07:41:20.684Z,976.84
2018-03-22T07:42:20.670Z,976.81
2018-03-22T07:43:20.674Z,976.76
2018-03-22T07:44:20.670Z,976.84
2018-03-22T07:45:20.732Z,976.77
2018-03-22T07:46:21.458Z,976.73
2018-03-22T07:47:20.711Z,976.69
2018-03-22T07:48:21.289Z,976.74
2018-03-22T07:49:20.661Z,976.80
2018-03-22T07:50:20.704Z,976.72
2018-03-22T07:51:20.638Z,976.73
2018-03-22T07:52:20.652Z,976.75
2018-03-22T07:53:20.656Z,976.71
2018-03-22T07:54:20.627Z,976.65
2018-03-22T07:55:20.655Z,976.66
2018-03-22T07:56:20.624Z,976.63
2018-03-22T07:57:20.623Z,976.58
2018-03-22T07:58:20.609Z,976.66
2018-03-22T07:59:20.619Z,976.56
2018-03-22T08:00:20.658Z,976.51
2018-03-22T08:01:20.594Z,976.49
2018-03-22T08:02:20.589Z,976.48
2018-03-22T08:03:20.585Z,976.43
2018-03-22T08:04:20.588Z,976.46
2018-03-22T08:05:20.625Z,976.48
2018-03-22T08:06:20.620Z,976.47
2018-03-22T08:07:20.576Z,976.44
2018-03-22T08:08:20.584Z,976.46
2018-03-22T08:09:20.570Z,976.49
2018-03-22T08:10:20.591Z,976.52
2018-03-22T08:11:20.583Z,976.52
2018-03-22T08:12:20.559Z,976.51
2018-03-22T08:13:20.544Z,976.39
2018-03-22T08:14:20.539Z,976.47
2018-03-22T08:15:20.590Z,976.48
2018-03-22T08:16:20.555Z,976.49
2018-03-22T08:17:20.539Z,976.47
2018-03-22T08:18:20.533Z,976.47
2018-03-22T08:19:20.538Z,976.48
2018-03-22T08:20:20.565Z,976.49
2018-03-22T08:21:20.546Z,976.46
2018-03-22T08:22:20.499Z,976.49
2018-03-22T08:23:20.514Z,976.46
2018-03-22T08:24:20.521Z,976.35
2018-03-22T08:25:20.540Z,976.34
2018-03-22T08:26:20.540Z,976.41
2018-03-22T08:27:20.513Z,976.40
2018-03-22T08:28:20.502Z,976.42
2018-03-22T08:29:20.544Z,976.40
2018-03-22T08:30:20.478Z,976.39
2018-03-22T08:31:20.505Z,976.30
2018-03-22T08:32:20.494Z,976.35
2018-03-22T08:33:20.491Z,976.32
2018-03-22T08:34:20.553Z,976.34
2018-03-22T08:35:20.471Z,976.39
2018-03-22T08:36:20.467Z,976.31
2018-03-22T08:37:20.464Z,976.31
2018-03-22T08:38:20.463Z,976.27
2018-03-22T08:39:20.444Z,976.31
2018-03-22T08:40:20.493Z,976.29
2018-03-22T08:41:20.463Z,976.31
2018-03-22T08:42:20.451Z,976.24
2018-03-22T08:43:20.469Z,976.25
2018-03-22T08:44:20.422Z,976.21
2018-03-22T08:45:20.464Z,976.17
2018-03-22T08:46:20.472Z,976.19
2018-03-22T08:47:20.427Z,976.20
2018-03-22T08:48:20.423Z,976.15
2018-03-22T08:49:20.425Z,976.09
2018-03-22T08:50:20.487Z,976.06
2018-03-22T08:51:20.398Z,976.07
2018-03-22T08:52:20.412Z,976.05
2018-03-22T08:53:20.408Z,976.05
2018-03-22T08:54:20.614Z,975.95
2018-03-22T08:55:20.420Z,975.97
2018-03-22T08:56:20.371Z,975.85
2018-03-22T08:57:20.379Z,976.03
2018-03-22T08:58:20.418Z,975.98
2018-03-22T08:59:20.396Z,975.83
2018-03-22T09:00:20.411Z,975.97
2018-03-22T09:01:20.365Z,975.93
2018-03-22T09:02:20.365Z,975.95
2018-03-22T09:03:20.341Z,975.92
2018-03-22T09:04:20.404Z,975.91
2018-03-22T09:05:20.345Z,975.84
2018-03-22T09:06:20.332Z,975.88
2018-03-22T09:07:20.336Z,975.83
2018-03-22T09:08:20.365Z,975.85
2018-03-22T09:09:20.381Z,975.82
2018-03-22T09:10:20.323Z,975.74
2018-03-22T09:11:20.329Z,975.73
2018-03-22T09:12:20.310Z,975.70
2018-03-22T09:13:20.358Z,975.72
2018-03-22T09:14:20.378Z,975.66
2018-03-22T09:15:20.363Z,975.52
2018-03-22T09:16:20.311Z,975.60
2018-03-22T09:17:20.354Z,975.55
2018-03-22T09:18:20.296Z,975.44
2018-03-22T09:19:20.494Z,975.47
2018-03-22T09:20:20.272Z,975.50
2018-03-22T09:21:20.332Z,975.41
2018-03-22T09:22:20.262Z,975.34
2018-03-22T09:23:20.258Z,975.46
2018-03-22T09:24:20.297Z,975.43
2018-03-22T09:25:20.253Z,975.35
2018-03-22T09:26:20.245Z,975.28
2018-03-22T09:27:20.240Z,975.41
2018-03-22T09:28:20.238Z,975.39
2018-03-22T09:29:20.304Z,975.36
2018-03-22T09:30:20.233Z,975.40
2018-03-22T09:31:20.220Z,975.35
2018-03-22T09:32:20.218Z,975.27
2018-03-22T09:33:20.218Z,975.27
2018-03-22T09:34:20.253Z,975.18
2018-03-22T09:35:20.198Z,975.21
2018-03-22T09:36:20.215Z,975.20
2018-03-22T09:37:20.193Z,975.18
2018-03-22T09:38:20.214Z,975.17
2018-03-22T09:39:20.245Z,975.17
2018-03-22T09:40:20.178Z,975.05
2018-03-22T09:41:20.191Z,975.16
2018-03-22T09:42:20.192Z,975.10
2018-03-22T09:43:20.179Z,975.11
2018-03-22T09:44:20.194Z,975.14
2018-03-22T09:45:20.214Z,975.10
2018-03-22T09:46:20.172Z,975.11
2018-03-22T09:47:20.192Z,975.11
2018-03-22T09:48:20.157Z,975.13
2018-03-22T09:49:20.214Z,975.06
2018-03-22T09:50:20.149Z,975.09
2018-03-22T09:51:20.188Z,974.90
2018-03-22T09:52:20.151Z,974.96
2018-03-22T09:53:20.145Z,975.06
2018-03-22T09:54:20.128Z,975.06
2018-03-22T09:55:20.187Z,975.01
2018-03-22T09:56:20.108Z,974.99
2018-03-22T09:57:20.141Z,974.99
2018-03-22T09:58:20.112Z,975.04
2018-03-22T09:59:20.110Z,975.02
2018-03-22T10:00:20.161Z,974.99
2018-03-22T10:01:20.100Z,974.94
2018-03-22T10:02:20.108Z,974.97
2018-03-22T10:03:20.107Z,974.95
2018-03-22T10:04:20.087Z,974.94
2018-03-22T10:05:20.149Z,974.98
2018-03-22T10:06:20.102Z,974.94
2018-03-22T10:07:20.088Z,974.93
2018-03-22T10:08:20.098Z,974.89
2018-03-22T10:09:20.106Z,974.84
2018-03-22T10:10:20.149Z,974.82
2018-03-22T10:11:20.080Z,974.81
2018-03-22T10:12:20.066Z,974.77
2018-03-22T10:13:20.079Z,974.74
2018-03-22T10:14:20.053Z,974.77
2018-03-22T10:15:20.127Z,974.76
2018-03-22T10:16:20.092Z,974.71
2018-03-22T10:17:20.059Z,974.73
2018-03-22T10:18:20.080Z,974.71
2018-03-22T10:19:20.072Z,974.71
2018-03-22T10:20:20.159Z,974.69
2018-03-22T10:21:20.049Z,974.61
2018-03-22T10:22:20.074Z,974.65
2018-03-22T10:23:20.071Z,974.62
2018-03-22T10:24:20.057Z,974.60
2018-03-22T10:25:20.110Z,974.51
2018-03-22T10:26:20.051Z,974.55
2018-03-22T10:27:20.050Z,974.55
2018-03-22T10:28:20.059Z,974.51
2018-03-22T10:29:20.044Z,974.48
2018-03-22T10:30:20.040Z,974.47
2018-03-22T10:31:20.101Z,974.43
2018-03-22T10:32:20.036Z,974.41
2018-03-22T10:33:20.033Z,974.47
2018-03-22T10:34:20.071Z,974.43
2018-03-22T10:35:20.029Z,974.39
2018-03-22T10:36:20.083Z,974.42
2018-03-22T10:37:20.045Z,974.38
2018-03-22T10:38:20.044Z,974.35
2018-03-22T10:39:20.020Z,974.30
2018-03-22T10:40:20.036Z,974.31
2018-03-22T10:41:20.074Z,974.23
2018-03-22T10:42:20.019Z,974.32
2018-03-22T10:43:20.052Z,974.25
2018-03-22T10:44:20.059Z,974.25
2018-03-22T10:45:20.033Z,974.18
2018-03-22T10:46:20.128Z,974.27
2018-03-22T10:47:20.045Z,974.24
2018-03-22T10:48:20.034Z,974.19
2018-03-22T10:49:20.048Z,974.22
2018-03-22T10:50:20.037Z,974.12
2018-03-22T10:51:20.056Z,974.21
2018-03-22T10:52:20.044Z,974.17
2018-03-22T10:53:20.067Z,974.13
2018-03-22T10:54:20.074Z,974.13
2018-03-22T10:55:20.009Z,974.13
2018-03-22T10:56:20.056Z,974.10
2018-03-22T10:57:20.015Z,974.06
2018-03-22T10:58:20.051Z,974.05
2018-03-22T10:59:20.016Z,974.04
2018-03-22T11:00:20.014Z,974.03
2018-03-22T11:01:20.081Z,974.05
2018-03-22T11:02:20.022Z,973.98
2018-03-22T11:03:20.024Z,974.02
2018-03-22T11:04:20.094Z,974.00
2018-03-22T11:05:20.025Z,974.03
2018-03-22T11:06:20.060Z,974.05
2018-03-22T11:07:20.000Z,974.02
2018-03-22T11:08:20.007Z,974.04
2018-03-22T11:09:20.010Z,974.01
2018-03-22T11:10:20.011Z,974.02
2018-03-22T11:11:20.069Z,974.01
2018-03-22T11:12:20.004Z,974.00
2018-03-22T11:13:19.982Z,974.00
2018-03-22T11:14:19.997Z,973.95
2018-03-22T11:15:19.992Z,973.95
2018-03-22T11:16:20.068Z,974.00
2018-03-22T11:17:19.996Z,974.02
2018-03-22T11:18:20.012Z,974.01
2018-03-22T11:19:20.001Z,973.94
2018-03-22T11:20:20.017Z,973.96
2018-03-22T11:21:20.007Z,973.95
2018-03-22T11:22:20.044Z,973.91
2018-03-22T11:23:20.029Z,973.89
2018-03-22T11:24:19.982Z,973.91
2018-03-22T11:25:19.979Z,973.95
2018-03-22T11:26:19.960Z,973.98
2018-03-22T11:27:20.030Z,973.90
2018-03-22T11:28:19.979Z,973.94
2018-03-22T11:29:19.987Z,973.94
2018-03-22T11:30:19.969Z,973.85
2018-03-22T11:31:19.992Z,973.83
2018-03-22T11:32:20.024Z,973.93
2018-03-22T11:33:19.976Z,973.83
2018-03-22T11:34:19.987Z,973.83
2018-03-22T11:35:19.965Z,973.81
2018-03-22T11:36:19.999Z,973.84
2018-03-22T11:37:19.973Z,973.82
2018-03-22T11:38:19.956Z,973.81
2018-03-22T11:39:19.956Z,973.81
2018-03-22T11:40:19.946Z,973.79
2018-03-22T11:41:20.031Z,973.78
2018-03-22T11:42:19.928Z,973.71
2018-03-22T11:43:19.936Z,973.78
2018-03-22T11:44:19.938Z,973.76
2018-03-22T11:45:41.039Z,973.76
2018-03-22T11:46:19.985Z,973.71
2018-03-22T11:47:19.930Z,973.78
2018-03-22T11:48:19.922Z,973.73
2018-03-22T11:49:19.904Z,973.68
2018-03-22T11:50:19.921Z,973.70
2018-03-22T11:51:19.964Z,973.70
2018-03-22T11:52:19.952Z,973.65
2018-03-22T11:53:19.923Z,973.66
2018-03-22T11:54:19.922Z,973.67
2018-03-22T11:55:19.935Z,973.57
2018-03-22T11:56:19.972Z,973.61
2018-03-22T11:57:19.914Z,973.67
2018-03-22T11:58:19.902Z,973.64
2018-03-22T11:59:19.922Z,973.65
2018-03-22T12:00:19.919Z,973.63
2018-03-22T12:01:19.974Z,973.59
2018-03-22T12:02:19.881Z,973.63
2018-03-22T12:03:19.882Z,973.64
2018-03-22T12:04:19.900Z,973.59
2018-03-22T12:05:19.883Z,973.59
2018-03-22T12:07:55.591Z,973.62
2018-03-22T12:08:55.517Z,973.55
2018-03-22T12:09:55.447Z,973.54
2018-03-22T12:10:55.431Z,973.60
2018-03-22T12:11:55.422Z,973.60
2018-03-22T12:12:55.407Z,973.59
2018-03-22T12:13:55.421Z,973.54
2018-03-22T12:14:55.402Z,973.58
2018-03-22T12:15:55.449Z,973.56
2018-03-22T12:16:56.081Z,973.59
2018-03-22T12:17:56.100Z,973.50
2018-03-22T12:18:56.122Z,973.51
2018-03-22T12:19:55.414Z,973.45
2018-03-22T12:20:55.587Z,973.48
2018-03-22T12:21:55.387Z,973.48
2018-03-22T12:22:55.364Z,973.43
2018-03-22T12:23:55.404Z,973.41
2018-03-22T12:24:55.376Z,973.39
2018-03-22T12:25:55.396Z,973.45
2018-03-22T12:26:55.348Z,973.49
2018-03-22T12:27:55.436Z,973.50
2018-03-22T12:28:55.333Z,973.47
2018-03-22T12:29:55.355Z,973.51